Terminal Aerodrome Forecast
Issued by NWS

Home | Current Version | Previous Version | Text Only | Print | Product List | Glossary On
Versions: 1 2 3 4 5 6 7 8 9 10 11 12 13 14 15 16 17
000
FTUS44 KTSA 242320
TAFXNA
TAF
KXNA 242320Z 2500/2524 27014G20KT P6SM OVC004
     FM250200 29012KT P6SM SCT025
     FM250600 VRB03KT 4SM BR SKC
     FM251600 18010KT P6SM SKC=

USA.gov is the U.S. government's official web portal to all federal, state and local government web resources and services.